sensor_id;sensor_type;location;lat;lon;timestamp;temperature;humidity
43320;DHT22;28914;48.722;9.332;2022-12-18T00:05:02;-2.80;80.10
43320;DHT22;28914;48.722;9.332;2022-12-18T00:10:21;-2.80;80.00
43320;DHT22;28914;48.722;9.332;2022-12-18T00:15:40;-2.80;80.00
43320;DHT22;28914;48.722;9.332;2022-12-18T00:21:01;-2.80;79.80
43320;DHT22;28914;48.722;9.332;2022-12-18T00:26:24;-2.90;79.50
43320;DHT22;28914;48.722;9.332;2022-12-18T00:31:43;-2.90;79.30
43320;DHT22;28914;48.722;9.332;2022-12-18T00:37:02;-3.00;79.20
43320;DHT22;28914;48.722;9.332;2022-12-18T00:42:21;-3.10;79.20
43320;DHT22;28914;48.722;9.332;2022-12-18T00:48:00;-3.10;79.50
43320;DHT22;28914;48.722;9.332;2022-12-18T00:53:19;-3.10;79.50
43320;DHT22;28914;48.722;9.332;2022-12-18T00:58:39;-3.20;79.70
43320;DHT22;28914;48.722;9.332;2022-12-18T01:04:00;-3.10;79.80
43320;DHT22;28914;48.722;9.332;2022-12-18T01:09:19;-3.20;79.80
43320;DHT22;28914;48.722;9.332;2022-12-18T01:14:39;-3.20;79.80
43320;DHT22;28914;48.722;9.332;2022-12-18T01:19:58;-3.10;79.90
43320;DHT22;28914;48.722;9.332;2022-12-18T01:25:17;-3.10;79.80
43320;DHT22;28914;48.722;9.332;2022-12-18T01:30:37;-3.10;79.70
43320;DHT22;28914;48.722;9.332;2022-12-18T01:35:56;-3.20;79.30
43320;DHT22;28914;48.722;9.332;2022-12-18T01:41:18;-3.20;80.00
43320;DHT22;28914;48.722;9.332;2022-12-18T01:46:37;-3.20;79.20
43320;DHT22;28914;48.722;9.332;2022-12-18T01:51:56;-3.20;79.70
43320;DHT22;28914;48.722;9.332;2022-12-18T01:57:16;-3.30;78.70
43320;DHT22;28914;48.722;9.332;2022-12-18T02:02:35;-3.30;78.80
43320;DHT22;28914;48.722;9.332;2022-12-18T02:31:19;-3.70;78.20
43320;DHT22;28914;48.722;9.332;2022-12-18T02:36:42;-3.90;78.00
43320;DHT22;28914;48.722;9.332;2022-12-18T02:42:02;-3.90;78.00
43320;DHT22;28914;48.722;9.332;2022-12-18T02:47:32;-4.10;77.80
43320;DHT22;28914;48.722;9.332;2022-12-18T02:53:33;-4.20;77.80
43320;DHT22;28914;48.722;9.332;2022-12-18T02:59:00;-4.30;77.70
43320;DHT22;28914;48.722;9.332;2022-12-18T03:04:27;-4.40;77.70
43320;DHT22;28914;48.722;9.332;2022-12-18T03:09:50;-4.50;78.00
43320;DHT22;28914;48.722;9.332;2022-12-18T03:15:18;-4.50;78.10
43320;DHT22;28914;48.722;9.332;2022-12-18T03:20:39;-4.60;78.10
43320;DHT22;28914;48.722;9.332;2022-12-18T03:26:03;-4.70;77.60
43320;DHT22;28914;48.722;9.332;2022-12-18T03:31:26;-4.80;77.20
43320;DHT22;28914;48.722;9.332;2022-12-18T03:36:46;-4.90;77.10
43320;DHT22;28914;48.722;9.332;2022-12-18T03:42:16;-5.00;77.20
43320;DHT22;28914;48.722;9.332;2022-12-18T03:53:32;-5.20;77.20
43320;DHT22;28914;48.722;9.332;2022-12-18T03:58:55;-5.30;77.20
43320;DHT22;28914;48.722;9.332;2022-12-18T04:04:16;-5.40;77.20
43320;DHT22;28914;48.722;9.332;2022-12-18T04:09:36;-5.40;77.30
43320;DHT22;28914;48.722;9.332;2022-12-18T04:14:57;-5.50;77.30
43320;DHT22;28914;48.722;9.332;2022-12-18T04:20:17;-5.60;77.10
43320;DHT22;28914;48.722;9.332;2022-12-18T04:25:36;-5.70;76.90
43320;DHT22;28914;48.722;9.332;2022-12-18T04:30:55;-5.80;76.90
43320;DHT22;28914;48.722;9.332;2022-12-18T04:36:15;-5.90;77.00
43320;DHT22;28914;48.722;9.332;2022-12-18T04:41:34;-6.00;77.00
43320;DHT22;28914;48.722;9.332;2022-12-18T04:46:53;-6.10;77.10
43320;DHT22;28914;48.722;9.332;2022-12-18T04:52:13;-6.20;77.10
43320;DHT22;28914;48.722;9.332;2022-12-18T04:57:32;-6.30;77.20
43320;DHT22;28914;48.722;9.332;2022-12-18T05:02:51;-6.30;77.20
43320;DHT22;28914;48.722;9.332;2022-12-18T05:08:10;-6.30;77.10
43320;DHT22;28914;48.722;9.332;2022-12-18T05:13:30;-6.40;77.00
43320;DHT22;28914;48.722;9.332;2022-12-18T05:18:50;-6.50;76.70
43320;DHT22;28914;48.722;9.332;2022-12-18T05:24:09;-6.60;76.70
43320;DHT22;28914;48.722;9.332;2022-12-18T05:29:28;-6.60;76.70
43320;DHT22;28914;48.722;9.332;2022-12-18T05:34:47;-6.70;76.80
43320;DHT22;28914;48.722;9.332;2022-12-18T05:40:07;-6.70;77.00
43320;DHT22;28914;48.722;9.332;2022-12-18T05:45:26;-6.80;77.00
43320;DHT22;28914;48.722;9.332;2022-12-18T05:50:47;-6.80;77.10
43320;DHT22;28914;48.722;9.332;2022-12-18T05:56:09;-6.80;77.20
43320;DHT22;28914;48.722;9.332;2022-12-18T06:01:29;-6.90;77.10
43320;DHT22;28914;48.722;9.332;2022-12-18T06:06:48;-6.90;77.10
43320;DHT22;28914;48.722;9.332;2022-12-18T06:12:07;-6.90;77.00
43320;DHT22;28914;48.722;9.332;2022-12-18T06:17:30;-7.00;76.90
43320;DHT22;28914;48.722;9.332;2022-12-18T06:22:49;-7.10;76.90
43320;DHT22;28914;48.722;9.332;2022-12-18T06:28:09;-7.10;77.00
43320;DHT22;28914;48.722;9.332;2022-12-18T06:33:28;-7.20;77.70
43320;DHT22;28914;48.722;9.332;2022-12-18T06:38:47;-7.20;77.00
43320;DHT22;28914;48.722;9.332;2022-12-18T06:44:06;-7.20;77.00
43320;DHT22;28914;48.722;9.332;2022-12-18T06:49:25;-7.20;77.00
43320;DHT22;28914;48.722;9.332;2022-12-18T06:54:45;-7.30;77.00
43320;DHT22;28914;48.722;9.332;2022-12-18T07:00:05;-7.30;77.00
43320;DHT22;28914;48.722;9.332;2022-12-18T07:05:25;-7.30;77.00
43320;DHT22;28914;48.722;9.332;2022-12-18T07:10:44;-7.40;77.00
43320;DHT22;28914;48.722;9.332;2022-12-18T07:16:05;-7.40;77.00
43320;DHT22;28914;48.722;9.332;2022-12-18T07:21:25;-7.40;77.00
43320;DHT22;28914;48.722;9.332;2022-12-18T07:26:47;-7.40;77.10
43320;DHT22;28914;48.722;9.332;2022-12-18T07:32:07;-7.50;77.20
43320;DHT22;28914;48.722;9.332;2022-12-18T07:37:26;-7.40;77.40
43320;DHT22;28914;48.722;9.332;2022-12-18T07:42:45;-7.40;77.50
43320;DHT22;28914;48.722;9.332;2022-12-18T07:48:05;-7.40;77.40
43320;DHT22;28914;48.722;9.332;2022-12-18T07:53:24;-7.40;77.20
43320;DHT22;28914;48.722;9.332;2022-12-18T07:58:43;-7.30;77.30
43320;DHT22;28914;48.722;9.332;2022-12-18T08:04:03;-7.30;77.20
43320;DHT22;28914;48.722;9.332;2022-12-18T08:09:22;-7.20;77.50
43320;DHT22;28914;48.722;9.332;2022-12-18T08:14:42;-7.10;77.70
43320;DHT22;28914;48.722;9.332;2022-12-18T08:20:01;-6.90;77.80
43320;DHT22;28914;48.722;9.332;2022-12-18T08:25:20;-6.90;77.40
43320;DHT22;28914;48.722;9.332;2022-12-18T08:30:39;-6.80;77.20
43320;DHT22;28914;48.722;9.332;2022-12-18T08:35:59;-6.70;77.10
43320;DHT22;28914;48.722;9.332;2022-12-18T08:41:19;-6.60;77.00
43320;DHT22;28914;48.722;9.332;2022-12-18T08:46:41;-6.50;76.90
43320;DHT22;28914;48.722;9.332;2022-12-18T08:52:01;-6.50;76.70
43320;DHT22;28914;48.722;9.332;2022-12-18T08:57:21;-6.50;76.50
43320;DHT22;28914;48.722;9.332;2022-12-18T09:02:41;-6.40;76.70
43320;DHT22;28914;48.722;9.332;2022-12-18T09:08:00;-6.30;77.00
43320;DHT22;28914;48.722;9.332;2022-12-18T09:13:19;-6.20;77.00
43320;DHT22;28914;48.722;9.332;2022-12-18T09:18:38;-6.00;77.20
43320;DHT22;28914;48.722;9.332;2022-12-18T09:23:57;-5.90;77.20
43320;DHT22;28914;48.722;9.332;2022-12-18T09:29:16;-5.80;77.20
43320;DHT22;28914;48.722;9.332;2022-12-18T09:34:36;-5.60;77.20
43320;DHT22;28914;48.722;9.332;2022-12-18T09:39:55;-5.50;76.70
43320;DHT22;28914;48.722;9.332;2022-12-18T09:45:14;-5.40;76.50
43320;DHT22;28914;48.722;9.332;2022-12-18T09:50:37;-5.30;76.50
43320;DHT22;28914;48.722;9.332;2022-12-18T09:56:01;-5.20;76.90
43320;DHT22;28914;48.722;9.332;2022-12-18T10:01:22;-4.90;77.50
43320;DHT22;28914;48.722;9.332;2022-12-18T10:06:58;-4.50;78.50
43320;DHT22;28914;48.722;9.332;2022-12-18T10:17:58;-3.40;78.60
43320;DHT22;28914;48.722;9.332;2022-12-18T10:23:30;-2.50;80.70
43320;DHT22;28914;48.722;9.332;2022-12-18T10:28:53;-0.70;84.60
43320;DHT22;28914;48.722;9.332;2022-12-18T10:34:13;1.30;85.10
43320;DHT22;28914;48.722;9.332;2022-12-18T10:39:33;3.40;84.00
43320;DHT22;28914;48.722;9.332;2022-12-18T10:45:03;5.50;78.40
43320;DHT22;28914;48.722;9.332;2022-12-18T10:50:31;7.10;71.10
43320;DHT22;28914;48.722;9.332;2022-12-18T10:55:53;8.40;69.00
43320;DHT22;28914;48.722;9.332;2022-12-18T11:01:15;9.60;66.60
43320;DHT22;28914;48.722;9.332;2022-12-18T11:06:53;10.50;61.10
43320;DHT22;28914;48.722;9.332;2022-12-18T11:12:16;10.80;58.00
43320;DHT22;28914;48.722;9.332;2022-12-18T11:17:36;10.70;58.20
43320;DHT22;28914;48.722;9.332;2022-12-18T11:23:01;10.50;57.40
43320;DHT22;28914;48.722;9.332;2022-12-18T11:28:51;10.00;56.30
43320;DHT22;28914;48.722;9.332;2022-12-18T11:34:22;9.30;54.50
43320;DHT22;28914;48.722;9.332;2022-12-18T11:39:46;8.50;54.70
43320;DHT22;28914;48.722;9.332;2022-12-18T11:51:13;7.50;57.80
43320;DHT22;28914;48.722;9.332;2022-12-18T11:56:35;7.40;58.80
43320;DHT22;28914;48.722;9.332;2022-12-18T12:19:06;6.30;58.50
43320;DHT22;28914;48.722;9.332;2022-12-18T12:30:26;5.20;59.30
43320;DHT22;28914;48.722;9.332;2022-12-18T12:41:30;4.10;61.10
43320;DHT22;28914;48.722;9.332;2022-12-18T12:47:22;3.80;62.10
43320;DHT22;28914;48.722;9.332;2022-12-18T12:52:48;3.50;63.10
43320;DHT22;28914;48.722;9.332;2022-12-18T13:09:09;3.20;65.20
43320;DHT22;28914;48.722;9.332;2022-12-18T13:19:51;3.00;66.30
43320;DHT22;28914;48.722;9.332;2022-12-18T13:25:30;2.90;66.80
43320;DHT22;28914;48.722;9.332;2022-12-18T13:30:53;2.90;67.40
43320;DHT22;28914;48.722;9.332;2022-12-18T13:36:31;2.80;67.60
43320;DHT22;28914;48.722;9.332;2022-12-18T13:47:53;2.80;68.50
43320;DHT22;28914;48.722;9.332;2022-12-18T13:53:21;2.80;68.70
43320;DHT22;28914;48.722;9.332;2022-12-18T13:58:40;2.80;69.00
43320;DHT22;28914;48.722;9.332;2022-12-18T14:04:22;2.80;69.20
43320;DHT22;28914;48.722;9.332;2022-12-18T14:09:44;2.80;69.50
43320;DHT22;28914;48.722;9.332;2022-12-18T14:20:31;2.70;69.80
43320;DHT22;28914;48.722;9.332;2022-12-18T14:25:51;2.70;70.00
43320;DHT22;28914;48.722;9.332;2022-12-18T14:31:18;2.50;70.00
43320;DHT22;28914;48.722;9.332;2022-12-18T14:36:38;2.40;70.10
43320;DHT22;28914;48.722;9.332;2022-12-18T14:41:59;2.30;70.20
43320;DHT22;28914;48.722;9.332;2022-12-18T14:47:18;2.10;70.30
43320;DHT22;28914;48.722;9.332;2022-12-18T14:52:37;2.00;70.50
43320;DHT22;28914;48.722;9.332;2022-12-18T14:57:57;1.80;70.50
43320;DHT22;28914;48.722;9.332;2022-12-18T15:03:20;1.70;70.70
43320;DHT22;28914;48.722;9.332;2022-12-18T15:08:39;1.50;70.90
43320;DHT22;28914;48.722;9.332;2022-12-18T15:13:59;1.40;71.10
43320;DHT22;28914;48.722;9.332;2022-12-18T15:19:31;1.20;71.10
43320;DHT22;28914;48.722;9.332;2022-12-18T15:24:51;1.00;71.30
43320;DHT22;28914;48.722;9.332;2022-12-18T15:35:33;0.70;71.70
43320;DHT22;28914;48.722;9.332;2022-12-18T15:40:53;0.50;71.80
43320;DHT22;28914;48.722;9.332;2022-12-18T15:51:35;0.30;72.50
43320;DHT22;28914;48.722;9.332;2022-12-18T15:56:55;0.20;72.80
43320;DHT22;28914;48.722;9.332;2022-12-18T16:02:47;0.10;72.90
43320;DHT22;28914;48.722;9.332;2022-12-18T16:08:07;0.10;73.10
43320;DHT22;28914;48.722;9.332;2022-12-18T16:13:26;0.00;73.20
43320;DHT22;28914;48.722;9.332;2022-12-18T16:18:46;0.00;73.30
43320;DHT22;28914;48.722;9.332;2022-12-18T16:24:08;-0.10;73.30
43320;DHT22;28914;48.722;9.332;2022-12-18T16:29:29;-0.20;73.50
43320;DHT22;28914;48.722;9.332;2022-12-18T16:34:49;-0.30;73.80
43320;DHT22;28914;48.722;9.332;2022-12-18T16:40:11;-0.30;74.20
43320;DHT22;28914;48.722;9.332;2022-12-18T16:45:31;-0.30;74.70
43320;DHT22;28914;48.722;9.332;2022-12-18T16:51:00;-0.40;75.10
43320;DHT22;28914;48.722;9.332;2022-12-18T16:56:20;-0.30;75.60
43320;DHT22;28914;48.722;9.332;2022-12-18T17:01:40;-0.30;75.70
43320;DHT22;28914;48.722;9.332;2022-12-18T17:06:59;-0.30;76.00
43320;DHT22;28914;48.722;9.332;2022-12-18T17:12:19;-0.20;76.00
43320;DHT22;28914;48.722;9.332;2022-12-18T17:17:39;-0.20;76.10
43320;DHT22;28914;48.722;9.332;2022-12-18T17:22:58;-0.20;76.10
43320;DHT22;28914;48.722;9.332;2022-12-18T17:28:17;-0.10;76.00
43320;DHT22;28914;48.722;9.332;2022-12-18T17:33:36;0.00;76.20
43320;DHT22;28914;48.722;9.332;2022-12-18T17:38:57;0.00;76.30
43320;DHT22;28914;48.722;9.332;2022-12-18T17:44:17;0.10;76.50
43320;DHT22;28914;48.722;9.332;2022-12-18T17:49:37;0.10;76.40
43320;DHT22;28914;48.722;9.332;2022-12-18T17:54:56;0.20;76.40
43320;DHT22;28914;48.722;9.332;2022-12-18T18:00:16;0.20;76.30
43320;DHT22;28914;48.722;9.332;2022-12-18T18:05:35;0.30;76.40
43320;DHT22;28914;48.722;9.332;2022-12-18T18:10:55;0.30;76.30
43320;DHT22;28914;48.722;9.332;2022-12-18T18:16:37;0.40;76.40
43320;DHT22;28914;48.722;9.332;2022-12-18T18:21:56;0.50;76.30
43320;DHT22;28914;48.722;9.332;2022-12-18T18:27:15;0.50;76.30
43320;DHT22;28914;48.722;9.332;2022-12-18T18:32:34;0.50;76.20
43320;DHT22;28914;48.722;9.332;2022-12-18T18:37:57;0.60;76.10
43320;DHT22;28914;48.722;9.332;2022-12-18T18:43:17;0.60;76.10
43320;DHT22;28914;48.722;9.332;2022-12-18T18:48:36;0.60;76.10
43320;DHT22;28914;48.722;9.332;2022-12-18T18:53:55;0.70;76.20
43320;DHT22;28914;48.722;9.332;2022-12-18T18:59:15;0.70;76.10
43320;DHT22;28914;48.722;9.332;2022-12-18T19:04:34;0.70;76.00
43320;DHT22;28914;48.722;9.332;2022-12-18T19:09:54;0.70;75.90
43320;DHT22;28914;48.722;9.332;2022-12-18T19:15:13;0.80;76.00
43320;DHT22;28914;48.722;9.332;2022-12-18T19:20:32;0.80;76.00
43320;DHT22;28914;48.722;9.332;2022-12-18T19:25:52;0.80;75.90
43320;DHT22;28914;48.722;9.332;2022-12-18T19:31:13;0.80;76.10
43320;DHT22;28914;48.722;9.332;2022-12-18T19:36:35;0.80;76.20
43320;DHT22;28914;48.722;9.332;2022-12-18T19:41:55;0.80;76.00
43320;DHT22;28914;48.722;9.332;2022-12-18T19:47:14;0.80;76.00
43320;DHT22;28914;48.722;9.332;2022-12-18T19:52:33;0.70;75.70
43320;DHT22;28914;48.722;9.332;2022-12-18T19:57:53;0.70;75.60
43320;DHT22;28914;48.722;9.332;2022-12-18T20:03:12;0.60;75.70
43320;DHT22;28914;48.722;9.332;2022-12-18T20:08:31;0.50;75.70
43320;DHT22;28914;48.722;9.332;2022-12-18T20:13:53;0.50;76.00
43320;DHT22;28914;48.722;9.332;2022-12-18T20:19:13;0.50;76.30
43320;DHT22;28914;48.722;9.332;2022-12-18T20:24:32;0.40;76.40
43320;DHT22;28914;48.722;9.332;2022-12-18T20:29:51;0.40;77.30
43320;DHT22;28914;48.722;9.332;2022-12-18T20:35:11;0.40;76.60
43320;DHT22;28914;48.722;9.332;2022-12-18T20:40:30;0.40;76.70
43320;DHT22;28914;48.722;9.332;2022-12-18T20:45:49;0.30;76.70
43320;DHT22;28914;48.722;9.332;2022-12-18T20:51:11;0.30;76.80
43320;DHT22;28914;48.722;9.332;2022-12-18T20:56:31;0.30;76.80
43320;DHT22;28914;48.722;9.332;2022-12-18T21:01:51;0.40;76.90
43320;DHT22;28914;48.722;9.332;2022-12-18T21:07:10;0.40;77.10
43320;DHT22;28914;48.722;9.332;2022-12-18T21:12:30;0.40;77.20
43320;DHT22;28914;48.722;9.332;2022-12-18T21:17:49;0.50;77.30
43320;DHT22;28914;48.722;9.332;2022-12-18T21:23:09;0.60;77.40
43320;DHT22;28914;48.722;9.332;2022-12-18T21:28:28;0.70;77.30
43320;DHT22;28914;48.722;9.332;2022-12-18T21:33:48;0.80;77.30
43320;DHT22;28914;48.722;9.332;2022-12-18T21:39:07;0.80;77.20
43320;DHT22;28914;48.722;9.332;2022-12-18T21:44:27;0.80;76.90
43320;DHT22;28914;48.722;9.332;2022-12-18T21:49:46;0.80;76.80
43320;DHT22;28914;48.722;9.332;2022-12-18T21:55:06;0.90;77.80
43320;DHT22;28914;48.722;9.332;2022-12-18T22:00:25;0.90;77.00
43320;DHT22;28914;48.722;9.332;2022-12-18T22:05:44;0.90;78.00
43320;DHT22;28914;48.722;9.332;2022-12-18T22:11:03;0.90;77.30
43320;DHT22;28914;48.722;9.332;2022-12-18T22:16:23;0.90;77.10
43320;DHT22;28914;48.722;9.332;2022-12-18T22:21:47;0.80;77.20
43320;DHT22;28914;48.722;9.332;2022-12-18T22:27:08;0.80;77.20
43320;DHT22;28914;48.722;9.332;2022-12-18T22:32:27;0.80;77.20
43320;DHT22;28914;48.722;9.332;2022-12-18T22:37:46;0.80;77.20
43320;DHT22;28914;48.722;9.332;2022-12-18T22:43:06;0.70;77.40
43320;DHT22;28914;48.722;9.332;2022-12-18T22:48:25;0.70;77.60
43320;DHT22;28914;48.722;9.332;2022-12-18T22:53:45;0.80;77.90
43320;DHT22;28914;48.722;9.332;2022-12-18T22:59:05;0.80;78.00
43320;DHT22;28914;48.722;9.332;2022-12-18T23:04:26;0.80;78.20
43320;DHT22;28914;48.722;9.332;2022-12-18T23:09:46;0.90;78.20
43320;DHT22;28914;48.722;9.332;2022-12-18T23:15:07;0.90;78.00
43320;DHT22;28914;48.722;9.332;2022-12-18T23:20:26;1.00;78.10
43320;DHT22;28914;48.722;9.332;2022-12-18T23:25:46;1.00;78.00
43320;DHT22;28914;48.722;9.332;2022-12-18T23:31:13;1.10;78.10
43320;DHT22;28914;48.722;9.332;2022-12-18T23:36:33;1.10;77.90
43320;DHT22;28914;48.722;9.332;2022-12-18T23:41:52;1.20;77.80
43320;DHT22;28914;48.722;9.332;2022-12-18T23:47:12;1.20;77.80
43320;DHT22;28914;48.722;9.332;2022-12-18T23:52:31;1.20;77.80
43320;DHT22;28914;48.722;9.332;2022-12-18T23:57:50;1.20;77.70
